This is the latest recevied weather packets stored in our database for station/object OE-11344. If no packets are shown the sender has not sent any weather packets the latest 10 day(s).
| Time | Temp. | Humidity | Pressure | Rain* | Wind** | Luminosity | Snow |
|---|---|---|---|---|---|---|---|
| 1787897484 | 22.78° C | 36% | 853.3 hPa | 0 mm | - | 91 W/m² | - |
| 1787897111 | 23.33° C | 34% | 853.4 hPa | 0 mm | - | 97 W/m² | - |
| 1787896511 | 22.78° C | 35% | 853.4 hPa | 0 mm | - | 91 W/m² | - |
| 1787895684 | 22.22° C | 39% | 853.5 hPa | 0 mm | - | 72 W/m² | - |
| 1787895312 | 22.78° C | 34% | 853.5 hPa | 0 mm | - | 60 W/m² | - |
| 1787894712 | 22.78° C | 35% | 853.5 hPa | 0 mm | - | 60 W/m² | - |
| 1787893885 | 22.22° C | 36% | 853.4 hPa | 0 mm | - | 42 W/m² | - |
| 1787893512 | 22.22° C | 36% | 853.4 hPa | 0 mm | - | 18 W/m² | - |
| 1787892912 | 23.33° C | 33% | 853.3 hPa | 0 mm | - | 6 W/m² | - |
| 1787892084 | 23.33° C | 32% | 853.3 hPa | 0 mm | - | 0 W/m² | - |
| 1787891711 | 23.33° C | 32% | 853.1 hPa | 0 mm | - | 0 W/m² | - |
| 1787891112 | 23.33° C | 33% | 853.2 hPa | 0 mm | - | 0 W/m² | - |
| 1787890284 | 23.33° C | 34% | 853.5 hPa | 0 mm | - | 0 W/m² | - |
| 1787889912 | 23.33° C | 32% | 853.5 hPa | 0 mm | - | 0 W/m² | - |
| 1787889312 | 23.33° C | 32% | 853.4 hPa | 0 mm | - | 0 W/m² | - |
| 1787888711 | 23.89° C | 33% | 853.4 hPa | 0 mm | - | 0 W/m² | - |
| 1787888111 | 23.33° C | 33% | 853.5 hPa | 0 mm | - | 0 W/m² | - |
| 1787887511 | 23.33° C | 33% | 853.5 hPa | 0 mm | - | 0 W/m² | - |
| 1787886683 | 23.33° C | 34% | 853.5 hPa | 0 mm | - | 0 W/m² | - |
| 1787886310 | 23.33° C | 34% | 853.4 hPa | 0 mm | - | 0 W/m² | - |
| 1787885712 | 23.33° C | 34% | 853.4 hPa | 0 mm | - | 0 W/m² | - |
| 1787884885 | 23.89° C | 33% | 853.8 hPa | 0 mm | - | 0 W/m² | - |
| 1787884512 | 23.33° C | 33% | 853.4 hPa | 0 mm | - | 0 W/m² | - |
| 1787883912 | 23.33° C | 34% | 853.8 hPa | 0 mm | - | 0 W/m² | - |
| 1787883085 | 23.33° C | 35% | 853.5 hPa | 0 mm | - | 0 W/m² | - |
* Rain latest hour (hover to see other rain measurements)
** Current wind speed in m/s (hover to see current wind gust speed)